createdAt,value
2023-04-28T00:00:04.746Z,8.90
2023-04-28T00:02:55.231Z,8.70
2023-04-28T00:05:45.469Z,8.70
2023-04-28T00:08:33.038Z,8.80
2023-04-28T00:11:39.621Z,8.40
2023-04-28T00:18:57.522Z,8.40
2023-04-28T00:25:47.132Z,8.20
2023-04-28T00:28:44.599Z,7.20
2023-04-28T00:34:54.012Z,8.40
2023-04-28T00:37:42.146Z,8.00
2023-04-28T00:40:36.343Z,8.10
2023-04-28T00:43:29.733Z,8.00
2023-04-28T00:46:22.778Z,9.60
2023-04-28T00:49:13.501Z,10.80
2023-04-28T00:52:03.925Z,9.50
2023-04-28T00:54:52.010Z,8.10
2023-04-28T00:57:40.364Z,8.00
2023-04-28T01:00:32.374Z,9.10
2023-04-28T01:03:24.534Z,6.90
2023-04-28T01:06:16.474Z,8.90
2023-04-28T01:09:10.219Z,8.20
2023-04-28T01:11:58.905Z,8.10
2023-04-28T01:15:05.976Z,9.00
2023-04-28T01:17:59.600Z,11.10
2023-04-28T01:20:56.616Z,7.70
2023-04-28T01:23:49.409Z,10.00
2023-04-28T01:26:57.540Z,8.30
2023-04-28T01:29:56.567Z,8.30
2023-04-28T01:32:51.933Z,8.30
2023-04-28T01:39:21.300Z,8.70
2023-04-28T01:42:12.535Z,9.20
2023-04-28T01:45:03.639Z,8.50
2023-04-28T01:47:51.333Z,8.30
2023-04-28T01:50:45.226Z,9.20
2023-04-28T01:53:43.291Z,8.40
2023-04-28T01:56:35.588Z,8.40
2023-04-28T01:59:24.814Z,8.40
2023-04-28T02:02:12.456Z,8.40
2023-04-28T02:05:01.072Z,8.30
2023-04-28T02:07:52.748Z,8.30
2023-04-28T02:10:44.020Z,10.20
2023-04-28T02:13:33.317Z,5.60
2023-04-28T02:16:24.053Z,8.30
2023-04-28T02:19:23.781Z,8.20
2023-04-28T02:22:27.004Z,8.40
2023-04-28T02:25:17.462Z,9.00
2023-04-28T02:33:04.415Z,8.80
2023-04-28T02:36:23.354Z,9.50
2023-04-28T02:39:36.872Z,8.30
2023-04-28T02:42:31.798Z,8.70
2023-04-28T02:45:33.523Z,8.20
2023-04-28T02:48:27.343Z,8.30
2023-04-28T02:51:15.802Z,10.70
2023-04-28T02:54:07.301Z,7.80
2023-04-28T02:57:03.934Z,8.40
2023-04-28T03:00:03.706Z,8.40
2023-04-28T03:06:54.240Z,8.50
2023-04-28T03:14:16.565Z,9.00
2023-04-28T03:25:31.168Z,8.50
2023-04-28T03:34:35.021Z,8.60
2023-04-28T03:48:08.857Z,8.60
2023-04-28T03:54:41.763Z,9.60
2023-04-28T03:57:31.617Z,8.60
2023-04-28T04:00:19.987Z,8.60
2023-04-28T04:03:16.662Z,8.70
2023-04-28T04:06:06.311Z,9.20
2023-04-28T04:09:01.549Z,11.30
2023-04-28T04:11:53.732Z,8.70
2023-04-28T04:14:42.546Z,8.70
2023-04-28T04:17:32.340Z,11.50
2023-04-28T04:20:21.853Z,8.80
2023-04-28T04:23:09.647Z,8.80
2023-04-28T04:25:57.990Z,8.80
2023-04-28T04:28:45.911Z,8.80
2023-04-28T04:31:37.661Z,9.00
2023-04-28T04:34:25.589Z,9.00
2023-04-28T04:37:15.375Z,8.90
2023-04-28T04:40:15.824Z,9.00
2023-04-28T04:43:09.772Z,9.00
2023-04-28T04:46:06.482Z,9.20
2023-04-28T04:48:54.351Z,8.80
2023-04-28T04:51:46.812Z,9.10
2023-04-28T04:54:36.537Z,9.10
2023-04-28T04:57:24.729Z,9.10
2023-04-28T05:00:39.622Z,9.80
2023-04-28T05:03:31.408Z,9.20
2023-04-28T05:06:24.119Z,9.20
2023-04-28T05:09:15.131Z,9.40
2023-04-28T05:12:04.340Z,9.40
2023-04-28T05:14:52.153Z,9.50
2023-04-28T05:17:44.197Z,9.60
2023-04-28T05:20:32.469Z,9.50
2023-04-28T05:23:20.046Z,9.40
2023-04-28T05:26:08.690Z,9.50
2023-04-28T05:29:02.187Z,9.20
2023-04-28T05:31:50.224Z,9.70
2023-04-28T05:34:38.337Z,9.70
2023-04-28T05:37:25.573Z,10.00
2023-04-28T05:40:14.089Z,9.70
2023-04-28T05:43:01.804Z,9.90
2023-04-28T05:45:51.278Z,10.00
2023-04-28T05:48:40.783Z,10.00
2023-04-28T05:51:29.080Z,10.10
2023-04-28T05:54:17.149Z,10.00
2023-04-28T05:57:08.355Z,10.20
2023-04-28T05:59:55.639Z,10.50
2023-04-28T06:02:44.814Z,10.30
2023-04-28T06:05:32.733Z,10.30
2023-04-28T06:08:21.109Z,10.40
2023-04-28T06:11:08.830Z,10.40
2023-04-28T06:13:59.819Z,10.50
2023-04-28T06:16:47.927Z,10.50
2023-04-28T06:19:36.907Z,11.30
2023-04-28T06:22:27.497Z,10.40
2023-04-28T06:25:15.722Z,8.90
2023-04-28T06:28:06.571Z,10.20
2023-04-28T06:30:54.768Z,10.50
2023-04-28T06:33:42.566Z,10.60
2023-04-28T06:36:31.576Z,11.50
2023-04-28T06:39:19.251Z,13.10
2023-04-28T06:42:07.650Z,10.70
2023-04-28T06:44:58.108Z,11.00
2023-04-28T06:47:48.511Z,13.20
2023-04-28T06:50:35.936Z,11.60
2023-04-28T06:53:28.272Z,11.60
2023-04-28T06:56:16.065Z,14.00
2023-04-28T06:59:03.828Z,11.80
2023-04-28T07:01:51.687Z,11.80
2023-04-28T07:04:39.686Z,11.90
2023-04-28T07:07:27.739Z,12.10
2023-04-28T07:10:19.099Z,12.60
2023-04-28T07:13:07.196Z,12.40
2023-04-28T07:15:55.490Z,13.50
2023-04-28T07:18:47.045Z,12.80
2023-04-28T07:21:35.029Z,13.80
2023-04-28T07:24:23.674Z,13.00
2023-04-28T07:27:14.023Z,13.00
2023-04-28T07:30:11.581Z,13.20
2023-04-28T07:33:08.037Z,11.70
2023-04-28T07:35:59.040Z,13.40
2023-04-28T07:38:46.380Z,15.20
2023-04-28T07:41:37.778Z,13.40
2023-04-28T07:44:27.505Z,14.10
2023-04-28T07:47:15.086Z,13.50
2023-04-28T07:50:05.105Z,13.90
2023-04-28T07:52:52.965Z,13.50
2023-04-28T07:55:42.174Z,14.60
2023-04-28T07:58:33.372Z,13.60
2023-04-28T08:01:24.481Z,13.20
2023-04-28T08:04:13.492Z,15.20
2023-04-28T08:07:06.122Z,13.70
2023-04-28T08:09:55.724Z,14.20
2023-04-28T08:12:45.337Z,14.60
2023-04-28T08:15:33.884Z,16.60
2023-04-28T08:18:23.787Z,14.30
2023-04-28T08:21:11.313Z,14.20
2023-04-28T08:23:58.811Z,14.70
2023-04-28T08:26:47.773Z,15.30
2023-04-28T08:29:36.881Z,15.50
2023-04-28T08:32:24.407Z,15.40
2023-04-28T08:35:15.646Z,15.40
2023-04-28T08:38:03.616Z,15.30
2023-04-28T08:40:51.529Z,15.10
2023-04-28T08:43:41.555Z,15.20
2023-04-28T08:46:30.402Z,15.10
2023-04-28T08:49:22.864Z,15.30
2023-04-28T08:52:13.696Z,15.20
2023-04-28T08:55:03.051Z,15.10
2023-04-28T08:57:51.765Z,15.90
2023-04-28T09:00:45.113Z,15.50
2023-04-28T09:03:35.848Z,15.90
2023-04-28T09:06:23.576Z,15.40
2023-04-28T09:09:26.867Z,15.90
2023-04-28T09:12:17.740Z,15.70
2023-04-28T09:15:13.016Z,15.80
2023-04-28T09:18:01.864Z,16.40
2023-04-28T09:20:50.117Z,15.90
2023-04-28T09:23:52.244Z,15.80
2023-04-28T09:26:55.589Z,18.20
2023-04-28T09:29:54.695Z,15.90
2023-04-28T09:32:42.334Z,16.20
2023-04-28T09:35:44.920Z,15.80
2023-04-28T09:38:32.400Z,15.80
2023-04-28T09:41:19.707Z,15.90
2023-04-28T09:44:16.552Z,15.70
2023-04-28T09:47:21.182Z,15.70
2023-04-28T09:50:11.953Z,16.00
2023-04-28T09:52:59.963Z,16.10
2023-04-28T09:55:48.823Z,16.50
2023-04-28T09:58:41.334Z,16.80
2023-04-28T10:01:35.893Z,17.90
2023-04-28T10:04:23.739Z,17.20
2023-04-28T10:07:12.814Z,17.50
2023-04-28T10:10:00.526Z,17.50
2023-04-28T10:12:48.605Z,17.90
2023-04-28T10:15:36.930Z,18.00
2023-04-28T10:18:26.027Z,17.60
2023-04-28T10:21:15.753Z,17.60
2023-04-28T10:24:12.550Z,17.80
2023-04-28T10:27:05.698Z,17.40
2023-04-28T10:29:53.824Z,17.50
2023-04-28T10:32:41.267Z,17.60
2023-04-28T10:35:46.562Z,17.60
2023-04-28T10:38:38.253Z,17.50
2023-04-28T10:41:35.064Z,17.60
2023-04-28T10:44:42.121Z,18.10
2023-04-28T10:47:29.962Z,18.20
2023-04-28T10:50:20.093Z,18.20
2023-04-28T10:53:10.930Z,17.80
2023-04-28T10:56:07.326Z,17.40
2023-04-28T10:58:56.217Z,17.20
2023-04-28T11:01:46.838Z,17.30
2023-04-28T11:04:54.792Z,19.60
2023-04-28T11:07:42.404Z,17.60
2023-04-28T11:10:56.846Z,17.90
2023-04-28T11:13:47.034Z,17.90
2023-04-28T11:16:35.589Z,18.10
2023-04-28T11:19:27.744Z,18.00
2023-04-28T11:22:16.228Z,18.30
2023-04-28T11:25:04.171Z,17.50
2023-04-28T11:27:54.767Z,17.40
2023-04-28T11:30:42.668Z,19.70
2023-04-28T11:33:31.114Z,18.00
2023-04-28T11:36:26.607Z,18.30
2023-04-28T11:39:15.572Z,18.30
2023-04-28T11:42:04.347Z,18.20
2023-04-28T11:44:54.152Z,18.60
2023-04-28T11:47:41.777Z,18.70
2023-04-28T11:50:41.508Z,18.50
2023-04-28T11:53:45.115Z,18.10
2023-04-28T11:56:35.229Z,17.90
2023-04-28T12:02:14.168Z,17.50
2023-04-28T12:05:07.962Z,17.40
2023-04-28T12:07:55.693Z,17.10
2023-04-28T12:10:43.870Z,16.60
2023-04-28T12:13:36.984Z,17.00
2023-04-28T12:16:38.650Z,17.10
2023-04-28T12:19:28.187Z,17.30
2023-04-28T12:22:17.831Z,15.80
2023-04-28T12:25:07.020Z,16.40
2023-04-28T12:28:04.762Z,16.60
2023-04-28T12:31:04.949Z,18.40
2023-04-28T12:33:53.734Z,16.20
2023-04-28T12:36:45.144Z,16.30
2023-04-28T12:39:33.345Z,16.90
2023-04-28T12:42:23.080Z,17.40
2023-04-28T12:45:10.980Z,17.30
2023-04-28T12:48:00.858Z,17.30
2023-04-28T12:50:48.461Z,17.70
2023-04-28T12:53:37.921Z,16.70
2023-04-28T12:56:25.513Z,17.80
2023-04-28T12:59:13.221Z,17.30
2023-04-28T13:02:01.897Z,17.20
2023-04-28T13:04:52.189Z,17.90
2023-04-28T13:07:40.382Z,17.30
2023-04-28T13:10:29.887Z,17.70
2023-04-28T13:13:20.621Z,18.60
2023-04-28T13:16:10.687Z,16.90
2023-04-28T13:18:59.267Z,16.80
2023-04-28T13:21:47.343Z,17.10
2023-04-28T13:24:35.837Z,16.80
2023-04-28T13:27:25.770Z,16.50
2023-04-28T13:30:14.775Z,17.30
2023-04-28T13:33:07.495Z,16.50
2023-04-28T13:35:55.590Z,16.40
2023-04-28T13:38:46.177Z,16.20
2023-04-28T13:41:35.861Z,16.10
2023-04-28T13:44:25.555Z,16.10
2023-04-28T13:47:13.150Z,16.10
2023-04-28T13:50:00.848Z,16.20
2023-04-28T13:52:48.698Z,16.20
2023-04-28T13:55:37.365Z,16.10
2023-04-28T13:58:26.677Z,15.90
2023-04-28T14:01:15.609Z,15.90
2023-04-28T14:04:03.811Z,15.90
2023-04-28T14:06:53.865Z,16.20
2023-04-28T14:09:41.884Z,16.70
2023-04-28T14:12:29.804Z,16.60
2023-04-28T14:15:18.329Z,16.00
2023-04-28T14:18:08.096Z,16.00
2023-04-28T14:20:56.585Z,16.00
2023-04-28T14:23:44.334Z,16.00
2023-04-28T14:26:34.941Z,15.70
2023-04-28T14:29:22.641Z,15.80
2023-04-28T14:32:10.032Z,15.70
2023-04-28T14:34:59.008Z,15.70
2023-04-28T14:37:46.976Z,15.70
2023-04-28T14:40:34.923Z,15.90
2023-04-28T14:43:25.103Z,16.00
2023-04-28T14:46:17.676Z,16.60
2023-04-28T14:49:06.192Z,16.10
2023-04-28T14:51:55.908Z,16.00
2023-04-28T14:54:43.472Z,17.20
2023-04-28T14:57:31.102Z,17.30
2023-04-28T15:00:20.101Z,15.80
2023-04-28T15:03:08.655Z,15.90
2023-04-28T15:05:56.382Z,15.30
2023-04-28T15:08:45.342Z,16.00
2023-04-28T15:11:33.449Z,15.90
2023-04-28T15:14:21.465Z,15.90
2023-04-28T15:17:10.037Z,16.00
2023-04-28T15:19:57.390Z,16.30
2023-04-28T15:22:44.833Z,16.30
2023-04-28T15:25:34.462Z,16.50
2023-04-28T15:28:22.366Z,16.70
2023-04-28T15:31:10.278Z,16.40
2023-04-28T15:33:58.749Z,17.00
2023-04-28T15:36:46.827Z,19.20
2023-04-28T15:39:34.812Z,17.00
2023-04-28T15:42:23.969Z,18.20
2023-04-28T15:45:16.231Z,17.10
2023-04-28T15:48:06.720Z,16.80
2023-04-28T15:50:57.631Z,16.70
2023-04-28T15:53:45.071Z,16.40
2023-04-28T15:56:35.958Z,16.80
2023-04-28T15:59:25.141Z,16.60
2023-04-28T16:02:13.520Z,18.20
2023-04-28T16:05:02.683Z,16.50
2023-04-28T16:07:53.012Z,16.70
2023-04-28T16:10:42.722Z,16.70
2023-04-28T16:13:32.872Z,16.70
2023-04-28T16:16:21.833Z,16.50
2023-04-28T16:19:13.000Z,16.30
2023-04-28T16:22:01.559Z,16.20
2023-04-28T16:24:51.710Z,16.00
2023-04-28T16:27:40.964Z,15.90
2023-04-28T16:30:29.524Z,15.70
2023-04-28T16:33:18.669Z,15.70
2023-04-28T16:36:06.221Z,15.60
2023-04-28T16:38:55.001Z,15.70
2023-04-28T16:41:43.039Z,15.80
2023-04-28T16:44:30.853Z,15.80
2023-04-28T16:47:18.281Z,15.50
2023-04-28T16:50:09.424Z,15.50
2023-04-28T16:52:56.912Z,15.30
2023-04-28T16:55:45.219Z,15.20
2023-04-28T16:58:32.763Z,15.50
2023-04-28T17:01:22.897Z,15.20
2023-04-28T17:04:10.640Z,15.20
2023-04-28T17:07:04.021Z,15.20
2023-04-28T17:09:52.688Z,15.10
2023-04-28T17:12:45.555Z,15.10
2023-04-28T17:15:33.398Z,15.10
2023-04-28T17:18:20.923Z,15.10
2023-04-28T17:21:09.804Z,15.10
2023-04-28T17:24:00.280Z,15.00
2023-04-28T17:26:48.476Z,14.90
2023-04-28T17:29:36.797Z,14.80
2023-04-28T17:32:24.247Z,14.80
2023-04-28T17:35:12.350Z,14.80
2023-04-28T17:38:02.830Z,14.70
2023-04-28T17:40:52.482Z,14.50
2023-04-28T17:43:40.055Z,14.50
2023-04-28T17:46:27.707Z,14.40
2023-04-28T17:49:16.392Z,14.30
2023-04-28T17:52:04.591Z,14.30
2023-04-28T17:54:52.254Z,14.10
2023-04-28T17:57:41.574Z,14.20
2023-04-28T18:00:31.669Z,14.10
2023-04-28T18:03:19.051Z,14.10
2023-04-28T18:06:09.211Z,14.20
2023-04-28T18:08:56.819Z,14.60
2023-04-28T18:11:45.081Z,13.90
2023-04-28T18:14:35.071Z,13.90
2023-04-28T18:17:23.457Z,13.80
2023-04-28T18:20:12.609Z,13.80
2023-04-28T18:23:00.119Z,13.80
2023-04-28T18:25:47.412Z,13.70
2023-04-28T18:28:35.384Z,13.60
2023-04-28T18:31:24.174Z,13.50
2023-04-28T18:34:11.428Z,13.60
2023-04-28T18:36:59.935Z,13.50
2023-04-28T18:39:48.636Z,13.50
2023-04-28T18:42:36.723Z,13.50
2023-04-28T18:45:24.413Z,13.40
2023-04-28T18:48:13.615Z,13.70
2023-04-28T18:51:02.063Z,13.40
2023-04-28T18:53:49.891Z,13.00
2023-04-28T18:56:37.409Z,13.00
2023-04-28T18:59:26.597Z,12.90
2023-04-28T19:02:18.095Z,13.20
2023-04-28T19:05:11.733Z,12.80
2023-04-28T19:07:59.467Z,12.80
2023-04-28T19:10:49.156Z,13.50
2023-04-28T19:13:36.790Z,12.80
2023-04-28T19:16:24.491Z,12.90
2023-04-28T19:19:15.297Z,12.80
2023-04-28T19:22:05.196Z,12.80
2023-04-28T19:24:53.836Z,12.80
2023-04-28T19:27:43.077Z,12.70
2023-04-28T19:30:31.057Z,12.70
2023-04-28T19:33:20.525Z,14.10
2023-04-28T19:36:09.990Z,12.80
2023-04-28T19:38:59.325Z,12.70
2023-04-28T19:41:48.274Z,12.70
2023-04-28T19:44:53.431Z,12.60
2023-04-28T19:47:44.996Z,12.50
2023-04-28T19:50:36.421Z,12.60
2023-04-28T19:53:24.931Z,12.60
2023-04-28T19:56:14.707Z,12.60
2023-04-28T19:59:02.417Z,12.70
2023-04-28T20:01:50.370Z,12.40
2023-04-28T20:04:38.420Z,12.40
2023-04-28T20:07:32.795Z,12.70
2023-04-28T20:10:21.102Z,12.30
2023-04-28T20:13:11.110Z,12.30
2023-04-28T20:16:00.545Z,12.30
2023-04-28T20:18:50.781Z,12.30
2023-04-28T20:21:39.790Z,12.10
2023-04-28T20:24:29.510Z,12.00
2023-04-28T20:27:17.443Z,11.80
2023-04-28T20:30:07.533Z,11.80
2023-04-28T20:32:55.072Z,11.80
2023-04-28T20:35:43.171Z,11.70
2023-04-28T20:38:33.204Z,14.00
2023-04-28T20:41:21.867Z,11.70
2023-04-28T20:44:09.907Z,11.80
2023-04-28T20:47:16.002Z,11.80
2023-04-28T20:50:07.733Z,11.70
2023-04-28T20:52:55.391Z,11.80
2023-04-28T20:55:44.194Z,12.60
2023-04-28T20:58:35.447Z,11.80
2023-04-28T21:01:25.665Z,12.00
2023-04-28T21:04:20.433Z,11.90
2023-04-28T21:07:10.597Z,11.80
2023-04-28T21:09:58.510Z,11.80
2023-04-28T21:12:46.264Z,11.70
2023-04-28T21:15:40.498Z,11.70
2023-04-28T21:18:28.421Z,11.70
2023-04-28T21:21:18.554Z,11.90
2023-04-28T21:24:09.855Z,11.80
2023-04-28T21:27:00.967Z,11.80
2023-04-28T21:29:49.159Z,11.70
2023-04-28T21:32:37.622Z,12.20
2023-04-28T21:35:25.731Z,11.70
2023-04-28T21:38:15.003Z,11.80
2023-04-28T21:41:03.286Z,11.70
2023-04-28T21:43:51.595Z,13.00
2023-04-28T21:46:39.331Z,12.30
2023-04-28T21:49:27.904Z,11.70
2023-04-28T21:52:16.405Z,11.70
2023-04-28T21:55:06.357Z,11.70
2023-04-28T21:57:57.498Z,11.70
2023-04-28T22:00:50.014Z,11.70
2023-04-28T22:03:39.654Z,11.70
2023-04-28T22:06:28.256Z,11.50
2023-04-28T22:09:15.671Z,11.60
2023-04-28T22:12:04.798Z,11.60
2023-04-28T22:14:53.540Z,11.60
2023-04-28T22:17:41.255Z,11.50
2023-04-28T22:20:29.444Z,11.50
2023-04-28T22:23:17.206Z,11.50
2023-04-28T22:26:05.310Z,11.50
2023-04-28T22:28:56.754Z,11.60
2023-04-28T22:31:46.722Z,11.50
2023-04-28T22:34:34.324Z,11.50
2023-04-28T22:37:22.634Z,11.50
2023-04-28T22:40:13.088Z,11.50
2023-04-28T22:43:01.139Z,11.50
2023-04-28T22:45:50.990Z,11.50
2023-04-28T22:48:39.394Z,11.40
2023-04-28T22:51:26.709Z,11.30
2023-04-28T22:54:16.978Z,11.40
2023-04-28T22:57:04.710Z,11.40
2023-04-28T22:59:52.521Z,11.40
2023-04-28T23:02:43.318Z,11.30
2023-04-28T23:05:31.424Z,11.40
2023-04-28T23:08:21.547Z,11.40
2023-04-28T23:11:11.063Z,11.40
2023-04-28T23:13:58.789Z,11.30
2023-04-28T23:16:47.139Z,12.10
2023-04-28T23:19:47.719Z,11.30
2023-04-28T23:22:35.501Z,11.30
2023-04-28T23:25:24.118Z,11.30
2023-04-28T23:28:13.590Z,11.20
2023-04-28T23:31:05.147Z,11.20
2023-04-28T23:33:52.973Z,11.80
2023-04-28T23:36:42.797Z,11.10
2023-04-28T23:39:33.049Z,11.00
2023-04-28T23:42:20.804Z,11.00
2023-04-28T23:45:10.058Z,11.00
2023-04-28T23:48:00.945Z,11.10
2023-04-28T23:50:48.286Z,11.00
2023-04-28T23:53:38.964Z,10.90
2023-04-28T23:56:27.047Z,11.00
2023-04-28T23:59:15.321Z,10.90
